Southeast Iowa Regional Airport Burlington US
ICAO: KBRL
IATA: BRL
Category: Medium
Scheduled Services: Yes

Elevation: 698 ft
TransAlt. 18000 ft.

Airport Communications:
ASOS:118.025
CHICAGO CNTR:135.6
FORT DODGE RDO:122.65
CTAF/UNICOM:123

KBRL Zoom In..

Runways:

(A) RW 12 length 5351 ft width 100 ft
---- / hdg 119

(B) RW 18 length 6701 ft width 150 ft
---- / hdg 179

(C) RW 30 length 5351 ft width 100 ft
---- / hdg 299

(D) RW 36 length 6701 ft width 150 ft
ILS 108.90 / hdg 359

Location; KBRL
Day. 23 / Time. 07.53 Zulu
* Altimeter: 29.97
* Temperature: 19° c. 66.2°f.
* Wind from: 340° Speed 06 kn.
Dewpoint: 18° c.
Visibility: 9 Statute Miles.
Clouds: Clear (automated report).

KBRL 230753Z AUTO 34006KT 9SM CLR 19/18 A2997 RMK AO2 SLP144 T01890178


Wind From 340°
Speed 06 kn.

 
 
jpsmedia.com for Web Design worldairports.se 2018   terms of use